Time;durP1;ratioP1;P1;durP2;ratioP2;P2;SDS_P1;SDS_P2;PMS_P1;PMS_P2;Temp;Humidity;BMP_temperature;BMP_pressure;BME280_temperature;BME280_humidity;BME280_pressure;Samples;Min_cycle;Max_cycle;Signal;HPM_P1;HPM_P2
2023/06/16 00:02:12;;;;;;;13.98;6.75;;;;;;;18.54;60.31;101801.81;5062207;28;20632;-73
2023/06/16 00:04:43;;;;;;;9.45;6.82;;;;;;;18.53;60.88;101796.53;5067041;28;20123;-74
2023/06/16 00:07:11;;;;;;;9.55;6.13;;;;;;;18.48;61.37;101801.47;5058577;28;20037;-72
2023/06/16 00:09:38;;;;;;;12.50;6.78;;;;;;;18.38;62.09;101794.09;5060182;28;20040;-72
2023/06/16 00:12:07;;;;;;;15.85;7.00;;;;;;;18.22;64.34;101798.16;5062267;28;20852;-73
2023/06/16 00:14:32;;;;;;;10.07;6.18;;;;;;;18.14;63.76;101797.94;5063506;28;21102;-76
2023/06/16 00:16:58;;;;;;;9.40;6.63;;;;;;;17.94;65.60;101796.81;5046697;28;20171;-73
2023/06/16 00:19:28;;;;;;;9.50;7.28;;;;;;;17.86;66.50;101803.66;5071412;28;20032;-76
2023/06/16 00:21:59;;;;;;;10.90;6.60;;;;;;;17.79;66.72;101801.56;5046341;28;20063;-76
2023/06/16 00:24:26;;;;;;;16.48;7.72;;;;;;;17.76;66.69;101809.91;5062977;28;20036;-74
2023/06/16 00:26:51;;;;;;;10.57;7.22;;;;;;;17.67;67.89;101799.78;5065847;28;20033;-74
2023/06/16 00:29:17;;;;;;;14.85;7.72;;;;;;;17.59;66.73;101787.78;5070644;28;20033;-74
2023/06/16 00:31:42;;;;;;;15.75;7.55;;;;;;;17.68;66.09;101798.84;5063355;28;20037;-74
2023/06/16 00:34:11;;;;;;;10.80;7.28;;;;;;;17.63;66.82;101799.19;5064432;28;20063;-74
2023/06/16 00:36:36;;;;;;;15.77;7.50;;;;;;;17.65;67.58;101790.97;5041449;28;20960;-74
2023/06/16 00:39:02;;;;;;;8.43;6.60;;;;;;;17.61;67.78;101790.34;5062574;28;20083;-74
2023/06/16 00:41:30;;;;;;;11.07;7.47;;;;;;;17.56;69.24;101793.38;5046128;28;20086;-74
2023/06/16 00:43:56;;;;;;;20.65;7.90;;;;;;;17.57;69.78;101794.25;5042646;28;20852;-75
2023/06/16 00:46:32;;;;;;;12.43;7.80;;;;;;;17.56;71.24;101790.69;5066356;28;20458;-76
2023/06/16 00:49:00;;;;;;;13.75;7.25;;;;;;;17.58;71.25;101791.47;5053580;28;20290;-73
2023/06/16 00:51:27;;;;;;;9.10;7.05;;;;;;;17.56;71.73;101792.53;5061638;28;20175;-74
2023/06/16 00:53:54;;;;;;;11.98;7.38;;;;;;;17.45;72.68;101795.22;5065311;28;20179;-74
2023/06/16 00:56:21;;;;;;;12.48;7.50;;;;;;;17.35;72.55;101786.97;5051875;28;20087;-74
2023/06/16 00:58:52;;;;;;;13.75;7.80;;;;;;;17.17;72.97;101791.06;5042868;28;20047;-72
2023/06/16 01:01:24;;;;;;;14.25;6.88;;;;;;;17.00;73.32;101793.19;5054952;28;20043;-76
2023/06/16 01:03:52;;;;;;;10.05;7.00;;;;;;;17.03;73.36;101789.44;5049158;28;20043;-75
2023/06/16 01:06:30;;;;;;;14.02;7.82;;;;;;;17.03;73.63;101789.44;5055853;28;20080;-72
2023/06/16 01:09:07;;;;;;;10.80;6.93;;;;;;;17.00;74.07;101786.97;5058787;28;20029;-76
2023/06/16 01:11:54;;;;;;;11.82;7.10;;;;;;;17.01;73.50;101788.66;5051993;28;20115;-76
2023/06/16 01:15:04;;;;;;;14.13;7.28;;;;;;;17.02;72.75;101782.34;5058452;28;20041;-74
2023/06/16 01:17:33;;;;;;;12.00;6.95;;;;;;;17.00;73.02;101787.81;5054460;28;20721;-75
2023/06/16 01:20:25;;;;;;;14.43;7.45;;;;;;;16.96;72.86;101780.94;5059677;28;20036;-73
2023/06/16 01:23:16;;;;;;;10.52;7.43;;;;;;;16.82;75.04;101789.22;5061399;28;20036;-73
2023/06/16 01:25:44;;;;;;;15.60;7.93;;;;;;;16.66;76.18;101788.56;5043932;28;20041;-74
2023/06/16 01:28:12;;;;;;;11.25;7.20;;;;;;;16.62;76.65;101792.47;5041833;28;20052;-73
2023/06/16 01:30:44;;;;;;;12.32;7.47;;;;;;;16.64;76.37;101788.69;5062511;28;20211;-73
2023/06/16 01:33:12;;;;;;;10.20;7.45;;;;;;;16.65;76.49;101787.72;5040539;28;20044;-72
2023/06/16 01:35:39;;;;;;;9.10;6.95;;;;;;;16.62;76.67;101789.75;5068749;28;20040;-75
2023/06/16 01:38:06;;;;;;;11.55;7.07;;;;;;;16.58;76.48;101789.16;5060651;28;20072;-73
2023/06/16 01:40:33;;;;;;;10.75;7.57;;;;;;;16.54;77.72;101783.13;5040975;28;20079;-73
2023/06/16 01:42:59;;;;;;;13.68;7.60;;;;;;;16.53;78.14;101789.50;5071867;28;20043;-76
2023/06/16 01:45:25;;;;;;;11.45;7.68;;;;;;;16.50;78.88;101780.78;5052975;28;20029;-74
2023/06/16 01:47:51;;;;;;;14.88;7.88;;;;;;;16.44;79.88;101794.69;5052819;28;20044;-73
2023/06/16 01:50:17;;;;;;;10.35;7.45;;;;;;;16.35;81.07;101798.03;5061031;28;20063;-74
2023/06/16 01:52:43;;;;;;;16.30;7.85;;;;;;;16.23;80.93;101789.88;5063031;28;20032;-73
2023/06/16 01:55:10;;;;;;;12.35;7.88;;;;;;;16.27;80.92;101788.69;5061487;28;20952;-74
2023/06/16 01:57:36;;;;;;;13.77;7.10;;;;;;;16.23;80.72;101792.59;5034909;28;20060;-75
2023/06/16 02:00:11;;;;;;;14.30;7.78;;;;;;;16.15;80.80;101791.41;5056974;28;20879;-73
2023/06/16 02:02:51;;;;;;;15.05;8.00;;;;;;;16.17;81.25;101794.88;5050744;28;20049;-75
2023/06/16 02:05:22;;;;;;;10.73;7.63;;;;;;;16.16;80.85;101791.28;5061002;28;20044;-74
2023/06/16 02:07:51;;;;;;;13.45;7.80;;;;;;;16.14;80.40;101789.69;5058080;28;20161;-74
2023/06/16 02:10:20;;;;;;;11.15;7.78;;;;;;;16.09;80.62;101784.63;5064336;28;20037;-72
2023/06/16 02:12:47;;;;;;;10.10;7.43;;;;;;;16.12;80.30;101787.13;5062824;28;20455;-75
2023/06/16 02:15:15;;;;;;;16.45;8.43;;;;;;;16.07;80.69;101786.59;5055946;28;20040;-76
2023/06/16 02:17:45;;;;;;;16.08;8.50;;;;;;;15.96;82.82;101786.47;5033945;28;20044;-72
2023/06/16 02:20:15;;;;;;;11.70;8.27;;;;;;;15.96;83.20;101781.09;5057820;28;20032;-72
2023/06/16 02:22:42;;;;;;;13.35;7.68;;;;;;;15.93;83.43;101775.94;5056821;28;20025;-74
2023/06/16 02:25:10;;;;;;;15.98;8.00;;;;;;;15.92;83.34;101783.16;5046361;28;20033;-74
2023/06/16 02:27:36;;;;;;;10.50;7.50;;;;;;;15.86;83.82;101780.88;5064141;28;20040;-74
2023/06/16 02:30:02;;;;;;;14.75;8.13;;;;;;;15.92;83.16;101785.84;5071189;28;20036;-74
2023/06/16 02:32:29;;;;;;;15.93;8.15;;;;;;;15.78;84.27;101777.88;5061938;28;20036;-75
2023/06/16 02:34:56;;;;;;;11.75;8.43;;;;;;;15.61;86.82;101787.06;5050093;28;20041;-76
2023/06/16 02:37:25;;;;;;;12.02;8.23;;;;;;;15.46;86.79;101786.34;5035101;28;20072;-74
2023/06/16 02:39:50;;;;;;;13.98;8.05;;;;;;;15.53;85.52;101786.75;5056614;28;20056;-74
2023/06/16 02:42:16;;;;;;;14.65;8.20;;;;;;;15.56;85.60;101783.84;5062159;28;20041;-76
2023/06/16 02:44:42;;;;;;;15.65;9.43;;;;;;;15.53;86.14;101789.44;5052696;28;20037;-76
2023/06/16 02:47:11;;;;;;;10.43;8.38;;;;;;;15.58;87.35;101783.75;5065818;28;20048;-75
2023/06/16 02:49:36;;;;;;;11.90;7.95;;;;;;;15.51;89.38;101786.88;5051154;28;20108;-76
2023/06/16 02:52:02;;;;;;;12.48;7.70;;;;;;;15.56;90.05;101786.53;5051031;28;20029;-75
2023/06/16 02:54:28;;;;;;;15.57;8.82;;;;;;;15.60;91.81;101779.97;5048558;28;20123;-74
2023/06/16 02:56:55;;;;;;;15.05;8.80;;;;;;;15.62;92.76;101783.44;5050511;28;20120;-79
2023/06/16 02:59:31;;;;;;;12.63;8.27;;;;;;;15.54;93.48;101788.47;5065835;28;20037;-78
2023/06/16 03:01:57;;;;;;;11.05;7.72;;;;;;;15.53;93.40;101784.06;5064486;28;20045;-76
2023/06/16 03:04:28;;;;;;;13.38;8.57;;;;;;;15.52;92.46;101779.66;5032959;28;20041;-75
2023/06/16 03:07:02;;;;;;;13.18;8.40;;;;;;;15.52;92.14;101782.34;5062513;28;20174;-75
2023/06/16 03:09:32;;;;;;;12.52;8.57;;;;;;;15.46;92.72;101785.44;5039148;28;20120;-73
2023/06/16 03:11:58;;;;;;;11.98;8.00;;;;;;;15.36;92.99;101787.94;5055854;28;20257;-73
2023/06/16 03:14:26;;;;;;;12.68;8.90;;;;;;;15.21;94.39;101792.53;5047651;28;20539;-78
2023/06/16 03:16:53;;;;;;;14.32;8.95;;;;;;;15.16;94.54;101786.59;5049165;28;20037;-77
2023/06/16 03:19:21;;;;;;;13.35;8.25;;;;;;;15.29;94.30;101786.63;5050837;28;20036;-75
2023/06/16 03:21:48;;;;;;;12.73;8.63;;;;;;;15.29;94.63;101795.53;5065474;28;20266;-75
2023/06/16 03:24:16;;;;;;;13.05;9.13;;;;;;;15.37;94.63;101800.41;5047481;28;20290;-72
2023/06/16 03:26:43;;;;;;;12.50;9.07;;;;;;;15.32;94.44;101791.78;5052518;28;20037;-77
2023/06/16 03:29:17;;;;;;;13.90;9.25;;;;;;;15.55;92.13;101792.88;5063549;28;20044;-74
2023/06/16 03:31:43;;;;;;;12.18;9.13;;;;;;;15.76;90.42;101793.25;5049217;28;20051;-74
2023/06/16 03:34:11;;;;;;;13.18;9.98;;;;;;;16.01;86.75;101773.53;5045415;28;20084;-74
2023/06/16 03:36:39;;;;;;;20.27;10.10;;;;;;;16.19;84.90;101776.75;5076223;28;20267;-73
2023/06/16 03:39:07;;;;;;;16.45;9.52;;;;;;;16.21;84.19;101772.97;5018248;28;1165068;-76
2023/06/16 03:41:34;;;;;;;12.88;10.00;;;;;;;16.42;82.67;101775.97;5056679;28;20072;-74
2023/06/16 03:44:03;;;;;;;17.42;10.15;;;;;;;16.56;81.61;101774.94;5056675;28;20112;-73
2023/06/16 03:46:31;;;;;;;14.40;9.73;;;;;;;16.88;80.06;101777.13;5045111;28;21080;-75
2023/06/16 03:48:57;;;;;;;15.80;9.98;;;;;;;17.33;77.56;101773.63;5036493;28;20033;-74
2023/06/16 03:51:24;;;;;;;15.63;10.43;;;;;;;17.86;74.40;101779.38;5052561;28;20029;-73
2023/06/16 03:53:51;;;;;;;12.65;9.27;;;;;;;18.40;71.04;101772.38;5057087;28;20037;-75
2023/06/16 03:56:18;;;;;;;20.02;9.25;;;;;;;18.82;68.34;101759.88;5060475;28;20128;-73
2023/06/16 03:58:44;;;;;;;14.77;8.80;;;;;;;19.13;66.07;101769.00;5059787;28;20034;-76
2023/06/16 04:01:11;;;;;;;16.42;10.05;;;;;;;19.52;64.45;101760.28;5061468;28;20050;-71
2023/06/16 04:03:37;;;;;;;14.50;9.65;;;;;;;20.10;62.49;101760.63;5061089;28;20029;-73
2023/06/16 04:06:04;;;;;;;13.63;9.35;;;;;;;20.34;62.34;101758.44;5069756;28;20047;-75
2023/06/16 04:08:30;;;;;;;16.63;9.48;;;;;;;20.92;60.76;101757.69;5063257;28;20044;-75
2023/06/16 04:10:58;;;;;;;13.27;9.63;;;;;;;21.48;57.70;101761.53;5063930;28;20029;-75
2023/06/16 04:13:25;;;;;;;18.08;9.10;;;;;;;21.91;56.71;101759.13;5059017;28;20037;-74
2023/06/16 04:15:51;;;;;;;10.80;9.05;;;;;;;22.37;54.86;101761.94;5064135;28;20033;-73
2023/06/16 04:18:17;;;;;;;12.68;9.27;;;;;;;22.72;53.43;101759.28;5064442;28;20045;-74
2023/06/16 04:20:42;;;;;;;15.60;9.50;;;;;;;22.69;52.92;101747.84;5063633;28;20459;-76
2023/06/16 04:23:10;;;;;;;15.57;9.38;;;;;;;22.86;52.72;101757.06;5068050;28;20025;-72
2023/06/16 04:25:38;;;;;;;17.73;9.93;;;;;;;22.48;52.47;101767.16;5047014;28;20064;-73
2023/06/16 04:28:13;;;;;;;17.98;10.25;;;;;;;21.50;54.15;101762.25;5055897;28;20029;-73
2023/06/16 04:30:42;;;;;;;12.02;9.18;;;;;;;21.05;55.63;101766.41;5057285;28;20045;-70
2023/06/16 04:33:11;;;;;;;13.30;8.75;;;;;;;20.53;57.60;101771.16;5058701;28;20037;-72
2023/06/16 04:35:39;;;;;;;17.00;9.43;;;;;;;20.12;59.07;101767.59;5058588;28;20025;-73
2023/06/16 04:38:08;;;;;;;12.82;10.20;;;;;;;20.04;59.79;101772.00;5062020;28;20043;-71
2023/06/16 04:40:41;;;;;;;13.88;10.20;;;;;;;20.03;60.31;101770.25;5057336;28;20101;-74
2023/06/16 04:43:07;;;;;;;20.20;10.85;;;;;;;20.33;59.71;101774.78;5052009;28;20026;-72
2023/06/16 04:45:41;;;;;;;17.13;10.60;;;;;;;20.14;60.45;101768.34;5053472;28;20036;-71
2023/06/16 04:48:07;;;;;;;12.93;9.63;;;;;;;20.24;60.99;101773.78;5055095;28;20030;-74
2023/06/16 04:50:36;;;;;;;16.80;10.23;;;;;;;20.27;61.86;101775.34;5049914;28;20027;-73
2023/06/16 04:53:03;;;;;;;15.77;9.95;;;;;;;20.47;62.50;101768.19;5051607;28;20079;-71
2023/06/16 04:55:30;;;;;;;12.57;9.68;;;;;;;20.92;60.38;101766.66;5043407;28;20877;-73
2023/06/16 04:57:55;;;;;;;14.65;9.23;;;;;;;21.32;59.39;101770.25;5048925;28;20032;-72
2023/06/16 05:00:21;;;;;;;13.20;9.77;;;;;;;22.04;56.85;101774.22;5062346;28;20044;-72
2023/06/16 05:02:46;;;;;;;16.23;10.45;;;;;;;22.48;55.65;101773.47;5041924;28;20033;-71
2023/06/16 05:05:13;;;;;;;14.25;10.85;;;;;;;23.32;54.21;101768.72;5046113;28;20041;-73
2023/06/16 05:07:40;;;;;;;14.00;10.55;;;;;;;24.34;51.60;101760.66;5041098;28;20045;-71
2023/06/16 05:10:10;;;;;;;21.85;11.48;;;;;;;25.07;50.47;101757.31;5040943;28;20032;-74
2023/06/16 05:12:36;;;;;;;12.63;10.60;;;;;;;24.07;49.79;101769.06;5046489;28;20103;-74
2023/06/16 05:15:02;;;;;;;17.55;9.68;;;;;;;22.88;52.75;101769.50;5050622;28;20091;-75
2023/06/16 05:17:28;;;;;;;13.23;9.45;;;;;;;22.77;52.93;101768.84;5040324;28;20095;-73
2023/06/16 05:19:55;;;;;;;12.98;9.40;;;;;;;23.48;53.34;101777.00;5044256;28;20024;-74
2023/06/16 05:22:23;;;;;;;13.65;9.80;;;;;;;23.70;51.72;101773.81;5045918;28;20152;-73
2023/06/16 05:24:53;;;;;;;17.45;9.73;;;;;;;25.89;48.36;101763.53;5047236;28;20061;-72
2023/06/16 05:27:22;;;;;;;13.48;9.65;;;;;;;26.65;46.66;101769.41;5043050;28;20659;-72
2023/06/16 05:29:52;;;;;;;12.00;10.02;;;;;;;26.82;45.94;101760.06;5025048;28;20044;-74
2023/06/16 05:32:19;;;;;;;15.43;10.23;;;;;;;26.62;45.65;101765.16;5057837;28;20033;-70
2023/06/16 05:34:51;;;;;;;14.65;9.07;;;;;;;26.17;45.56;101763.97;5041990;28;20021;-72
2023/06/16 05:37:17;;;;;;;15.75;9.82;;;;;;;26.14;47.42;101763.47;5060078;28;20084;-73
2023/06/16 05:39:49;;;;;;;15.15;9.65;;;;;;;25.66;48.18;101760.69;5047475;28;20068;-72
2023/06/16 05:42:15;;;;;;;17.13;10.02;;;;;;;25.15;47.98;101757.31;5052906;28;20736;-74
2023/06/16 05:44:43;;;;;;;15.50;9.10;;;;;;;24.50;49.24;101768.09;5036139;28;20545;-73
2023/06/16 05:47:11;;;;;;;11.73;8.68;;;;;;;24.44;49.81;101771.44;5026476;28;20033;-73
2023/06/16 05:49:37;;;;;;;18.70;10.30;;;;;;;24.51;50.33;101770.63;5063473;28;20053;-73
2023/06/16 05:52:05;;;;;;;15.13;9.48;;;;;;;24.76;49.85;101771.56;5046427;28;20029;-73
2023/06/16 05:54:35;;;;;;;15.40;11.25;;;;;;;24.79;48.95;101770.34;5037160;28;20079;-73
2023/06/16 05:57:03;;;;;;;13.88;11.23;;;;;;;24.64;49.87;101774.75;5032055;28;20033;-75
2023/06/16 05:59:29;;;;;;;15.50;11.13;;;;;;;24.40;51.14;101780.97;5046178;28;20658;-72
2023/06/16 06:01:55;;;;;;;16.48;12.18;;;;;;;24.57;50.33;101781.91;5048351;28;20040;-72
2023/06/16 06:04:30;;;;;;;28.58;12.60;;;;;;;24.50;50.07;101784.44;5042668;28;20158;-75
2023/06/16 06:07:00;;;;;;;16.30;12.13;;;;;;;24.49;51.01;101793.63;5057821;28;20164;-75
2023/06/16 06:09:27;;;;;;;16.38;12.93;;;;;;;24.34;52.15;101787.91;5042911;28;20040;-75
2023/06/16 06:11:54;;;;;;;18.00;12.15;;;;;;;24.40;52.47;101787.31;5052985;28;20036;-75
2023/06/16 06:14:20;;;;;;;13.45;10.52;;;;;;;24.19;51.36;101795.84;5045744;28;20029;-75
2023/06/16 06:16:46;;;;;;;17.00;10.95;;;;;;;23.89;53.26;101793.66;5047276;28;20501;-75
2023/06/16 06:19:11;;;;;;;11.60;9.95;;;;;;;23.61;54.33;101798.38;5047270;28;20908;-74
2023/06/16 06:21:38;;;;;;;12.73;10.95;;;;;;;23.49;54.57;101801.38;5044127;28;20872;-74
2023/06/16 06:24:06;;;;;;;15.77;11.23;;;;;;;22.60;56.80;101812.19;5030597;28;20227;-76
2023/06/16 06:26:32;;;;;;;15.52;10.63;;;;;;;21.66;59.55;101816.78;5030339;28;20104;-77
2023/06/16 06:28:59;;;;;;;17.45;10.30;;;;;;;22.41;58.41;101812.28;5046542;28;20036;-72
2023/06/16 06:31:25;;;;;;;15.02;11.18;;;;;;;22.97;58.48;101812.09;5046537;28;20029;-76
2023/06/16 06:33:51;;;;;;;16.05;10.57;;;;;;;23.59;57.32;101809.41;5044854;28;20045;-75
2023/06/16 06:36:27;;;;;;;17.92;11.27;;;;;;;23.77;54.63;101814.88;5056130;28;20037;-73
2023/06/16 06:38:55;;;;;;;16.63;11.00;;;;;;;24.06;55.12;101816.41;5045540;28;20069;-77
2023/06/16 06:41:23;;;;;;;15.38;10.52;;;;;;;24.21;53.44;101814.78;5042054;28;21211;-76
2023/06/16 06:43:50;;;;;;;14.57;10.75;;;;;;;24.19;52.86;101823.09;5036316;28;20565;-74
2023/06/16 06:46:36;;;;;;;15.45;10.18;;;;;;;24.01;53.58;101822.34;5047396;28;20048;-73
2023/06/16 06:49:01;;;;;;;20.52;10.45;;;;;;;23.88;54.43;101819.19;5032217;28;20115;-76
2023/06/16 06:51:27;;;;;;;17.58;11.15;;;;;;;23.99;54.92;101827.09;5049065;28;20110;-76
2023/06/16 06:53:53;;;;;;;16.70;9.75;;;;;;;24.13;54.34;101823.78;5044988;28;20033;-76
2023/06/16 06:56:18;;;;;;;18.98;10.77;;;;;;;24.33;54.95;101820.81;5045601;28;20044;-76
2023/06/16 06:58:44;;;;;;;15.35;10.82;;;;;;;24.12;55.29;101821.22;5045147;28;20427;-75
2023/06/16 07:01:10;;;;;;;19.20;11.00;;;;;;;24.23;55.59;101820.94;5054028;28;20037;-72
2023/06/16 07:03:36;;;;;;;19.15;10.40;;;;;;;24.49;53.44;101821.75;5050843;28;20874;-74
2023/06/16 07:06:01;;;;;;;18.08;11.35;;;;;;;24.36;53.06;101823.25;5051745;28;20045;-75
2023/06/16 07:08:27;;;;;;;21.48;10.35;;;;;;;24.39;53.56;101826.47;5047964;28;20037;-77
2023/06/16 07:10:53;;;;;;;21.33;10.70;;;;;;;24.42;53.20;101831.63;5051015;28;20037;-77
2023/06/16 07:13:18;;;;;;;18.05;10.15;;;;;;;24.03;55.32;101836.66;5050718;28;20041;-77
2023/06/16 07:15:44;;;;;;;15.45;10.00;;;;;;;24.22;53.16;101828.25;5050261;28;20037;-70
2023/06/16 07:18:10;;;;;;;22.13;9.80;;;;;;;24.03;54.15;101833.94;5044792;28;20033;-70
2023/06/16 07:20:36;;;;;;;20.58;10.10;;;;;;;23.53;55.41;101834.56;5035533;28;20529;-71
2023/06/16 07:23:02;;;;;;;15.70;10.35;;;;;;;24.39;55.41;101840.13;5049180;28;20037;-69
2023/06/16 07:25:28;;;;;;;14.10;10.02;;;;;;;24.48;53.01;101828.22;5049933;28;20135;-70
2023/06/16 07:27:55;;;;;;;20.67;10.80;;;;;;;24.63;52.59;101838.50;5042086;28;20154;-70
2023/06/16 07:30:20;;;;;;;18.55;10.00;;;;;;;24.65;52.49;101825.56;5042613;28;20071;-70
2023/06/16 07:32:46;;;;;;;17.33;10.95;;;;;;;24.59;50.87;101835.25;5046803;28;20775;-71
2023/06/16 07:35:12;;;;;;;14.55;9.18;;;;;;;25.11;50.91;101829.66;5048439;28;20068;-70
2023/06/16 07:37:37;;;;;;;20.20;9.77;;;;;;;25.15;50.78;101830.13;5052510;28;20037;-71
2023/06/16 07:40:08;;;;;;;22.58;10.80;;;;;;;25.48;49.72;101820.09;5052005;28;20434;-71
2023/06/16 07:42:35;;;;;;;11.77;9.68;;;;;;;25.48;51.09;101825.56;5044950;28;20039;-71
2023/06/16 07:45:01;;;;;;;13.02;8.70;;;;;;;25.65;48.83;101818.19;5068219;28;20029;-73
2023/06/16 07:47:26;;;;;;;11.80;7.90;;;;;;;25.29;47.45;101826.75;5065329;28;20471;-73
2023/06/16 07:49:52;;;;;;;10.32;6.65;;;;;;;25.76;53.88;101829.69;5061090;28;25077;-71
2023/06/16 07:52:18;;;;;;;6.03;5.25;;;;;;;25.87;45.72;101825.75;5064315;28;20036;-71
2023/06/16 07:54:45;;;;;;;7.93;5.40;;;;;;;25.97;44.54;101823.66;5068059;28;20029;-75
2023/06/16 07:57:11;;;;;;;7.65;5.10;;;;;;;26.15;45.04;101819.84;5054651;28;20028;-77
2023/06/16 07:59:37;;;;;;;13.70;6.47;;;;;;;25.27;44.60;101820.63;5071772;28;20107;-78
2023/06/16 08:02:03;;;;;;;11.50;5.95;;;;;;;26.12;44.07;101815.59;5074458;28;20051;-76
2023/06/16 08:04:32;;;;;;;8.27;5.53;;;;;;;26.20;42.74;101812.81;5070443;28;20037;-76
2023/06/16 08:06:57;;;;;;;7.45;4.75;;;;;;;26.60;44.42;101806.34;5069952;28;20607;-74
2023/06/16 08:09:23;;;;;;;5.82;4.55;;;;;;;26.63;41.44;101812.50;5073714;28;20033;-74
2023/06/16 08:11:49;;;;;;;8.07;5.13;;;;;;;26.83;41.02;101806.41;5073153;28;20852;-78
2023/06/16 08:14:15;;;;;;;4.40;3.95;;;;;;;27.01;41.78;101808.00;5070932;28;20138;-73
2023/06/16 08:16:41;;;;;;;8.70;4.97;;;;;;;26.98;39.78;101809.22;5068546;28;20028;-78
2023/06/16 08:19:08;;;;;;;8.70;5.05;;;;;;;27.12;40.67;101813.09;5075253;28;20040;-79
2023/06/16 08:21:35;;;;;;;7.10;4.93;;;;;;;26.17;40.49;101806.88;5053036;28;20059;-75
2023/06/16 08:24:01;;;;;;;9.05;5.10;;;;;;;26.75;39.61;101809.19;5074086;28;20079;-74
2023/06/16 08:26:28;;;;;;;5.68;4.15;;;;;;;26.83;42.47;101803.66;5072987;28;20085;-77
2023/06/16 08:28:53;;;;;;;6.20;4.10;;;;;;;27.13;39.86;101808.47;5062871;28;20056;-74
2023/06/16 08:31:19;;;;;;;7.03;4.78;;;;;;;26.95;38.21;101809.56;5069910;28;20105;-80
2023/06/16 08:33:45;;;;;;;6.50;4.47;;;;;;;27.28;39.59;101802.00;5072011;28;20041;-75
2023/06/16 08:36:11;;;;;;;7.20;4.25;;;;;;;27.42;40.12;101802.25;5067382;28;20060;-74
2023/06/16 08:38:37;;;;;;;12.70;7.32;;;;;;;27.34;40.93;101797.69;5034980;28;20056;-75
2023/06/16 08:41:10;;;;;;;9.25;4.53;;;;;;;25.77;40.82;101804.06;5079152;28;20068;-77
2023/06/16 08:43:36;;;;;;;11.95;5.82;;;;;;;26.57;40.58;101795.78;5045094;28;20118;-74
2023/06/16 08:46:05;;;;;;;9.55;5.18;;;;;;;26.89;39.14;101798.50;5073737;28;20029;-74
2023/06/16 08:48:34;;;;;;;6.22;4.15;;;;;;;27.29;39.34;101787.28;5077058;28;20693;-76
2023/06/16 08:51:01;;;;;;;7.45;5.18;;;;;;;27.03;40.03;101795.00;5076507;28;20024;-75
2023/06/16 08:53:31;;;;;;;6.10;4.25;;;;;;;26.18;40.54;101787.53;5064500;28;20068;-75
2023/06/16 08:56:00;;;;;;;9.20;4.60;;;;;;;26.59;38.89;101787.38;5077056;28;20065;-79
2023/06/16 08:58:27;;;;;;;5.22;4.70;;;;;;;27.17;39.20;101777.81;5078111;28;20032;-75
2023/06/16 09:00:53;;;;;;;9.23;4.82;;;;;;;27.46;37.50;101781.66;5075512;28;20578;-78
2023/06/16 09:03:19;;;;;;;5.38;3.90;;;;;;;27.61;36.70;101774.31;5067934;28;20033;-75
2023/06/16 09:05:46;;;;;;;8.43;4.40;;;;;;;27.75;38.25;101778.13;5076924;28;20044;-75
2023/06/16 09:08:12;;;;;;;5.13;4.50;;;;;;;27.99;39.08;101783.34;5072612;28;20110;-74
2023/06/16 09:10:37;;;;;;;6.85;4.72;;;;;;;28.14;38.77;101783.34;5085584;28;20106;-76
2023/06/16 09:13:03;;;;;;;5.75;4.32;;;;;;;28.23;38.64;101781.38;5063156;28;20037;-76
2023/06/16 09:15:29;;;;;;;7.20;4.45;;;;;;;27.29;39.58;101789.16;5082380;28;20115;-75
2023/06/16 09:17:56;;;;;;;6.32;4.47;;;;;;;26.91;45.26;101801.91;5083497;28;20068;-73
2023/06/16 09:20:24;;;;;;;8.68;4.63;;;;;;;26.55;40.09;101795.09;5061129;28;20040;-73
2023/06/16 09:22:59;;;;;;;10.73;4.70;;;;;;;26.61;40.96;101793.56;5081772;28;20032;-75
2023/06/16 09:25:25;;;;;;;9.43;4.90;;;;;;;27.26;39.91;101793.13;5082808;28;20067;-75
2023/06/16 09:27:51;;;;;;;6.97;4.72;;;;;;;27.67;38.43;101784.53;5082712;28;20036;-75
2023/06/16 09:30:21;;;;;;;5.53;4.32;;;;;;;27.95;41.50;101786.66;5083050;28;20249;-78
2023/06/16 09:32:48;;;;;;;6.43;5.22;;;;;;;27.91;37.24;101780.69;5074241;28;20043;-81
2023/06/16 09:35:21;;;;;;;5.00;4.47;;;;;;;28.26;39.54;101776.34;5072445;28;20037;-74
2023/06/16 09:37:48;;;;;;;8.57;4.95;;;;;;;28.13;39.52;101776.19;5050386;28;20061;-74
2023/06/16 09:40:15;;;;;;;5.85;4.70;;;;;;;28.37;41.22;101780.53;5067831;28;20140;-73
2023/06/16 09:42:43;;;;;;;5.45;4.90;;;;;;;28.40;38.30;101774.66;5066996;28;20037;-73
2023/06/16 09:45:13;;;;;;;5.55;4.07;;;;;;;27.90;39.13;101778.16;5067174;28;20032;-73
2023/06/16 09:47:45;;;;;;;5.10;4.60;;;;;;;28.18;40.76;101775.63;5067861;28;20037;-75
2023/06/16 09:50:13;;;;;;;5.13;4.63;;;;;;;28.36;41.11;101776.91;5052118;28;20385;-73
2023/06/16 09:52:43;;;;;;;10.88;5.20;;;;;;;28.19;38.09;101769.91;5063784;28;20021;-76
2023/06/16 09:55:13;;;;;;;5.30;4.80;;;;;;;27.21;40.09;101764.56;5069583;28;20032;-77
2023/06/16 09:57:43;;;;;;;9.10;5.07;;;;;;;27.14;40.78;101763.63;5064271;28;20039;-72
2023/06/16 10:00:18;;;;;;;10.10;5.20;;;;;;;27.95;38.21;101759.25;5068370;28;20096;-76
2023/06/16 10:02:48;;;;;;;8.07;5.15;;;;;;;28.44;38.79;101765.00;5065940;28;20055;-72
2023/06/16 10:05:18;;;;;;;5.68;4.40;;;;;;;28.32;36.78;101753.66;5070386;28;20024;-78
2023/06/16 10:07:48;;;;;;;7.80;4.55;;;;;;;28.36;36.43;101765.09;5066654;28;20969;-77
2023/06/16 10:10:15;;;;;;;5.95;4.85;;;;;;;28.68;36.26;101755.56;5064943;28;20296;-74
2023/06/16 10:12:46;;;;;;;6.22;5.03;;;;;;;28.15;36.55;101752.13;5048635;28;20115;-79
2023/06/16 10:15:17;;;;;;;5.43;4.80;;;;;;;28.41;36.56;101759.03;5064385;28;20109;-79
2023/06/16 10:17:46;;;;;;;7.70;4.85;;;;;;;28.20;39.91;101752.41;5065538;28;20650;-77
2023/06/16 10:20:15;;;;;;;8.73;5.40;;;;;;;28.30;35.66;101750.22;5066752;28;20044;-80
2023/06/16 10:22:42;;;;;;;9.40;5.00;;;;;;;28.36;35.25;101748.63;5069349;28;20036;-75
2023/06/16 10:25:12;;;;;;;8.30;4.93;;;;;;;28.57;36.86;101745.97;5077871;28;20150;-75
2023/06/16 10:27:41;;;;;;;6.55;4.90;;;;;;;28.31;39.92;101745.59;5059581;28;20190;-80
2023/06/16 10:30:16;;;;;;;7.07;5.30;;;;;;;28.12;37.01;101741.56;5074569;28;20025;-75
2023/06/16 10:32:47;;;;;;;8.65;4.82;;;;;;;28.13;37.99;101740.53;5076365;28;20040;-75
2023/06/16 10:35:13;;;;;;;7.28;5.03;;;;;;;28.62;36.56;101746.22;5056788;28;20040;-74
2023/06/16 10:37:40;;;;;;;8.25;5.32;;;;;;;28.80;34.93;101739.44;5056922;28;20053;-73
2023/06/16 10:40:12;;;;;;;5.85;4.53;;;;;;;28.42;38.49;101739.66;5056634;28;20036;-73
2023/06/16 10:42:39;;;;;;;10.02;4.85;;;;;;;27.44;36.93;101738.00;5072718;28;20056;-74
2023/06/16 10:45:25;;;;;;;6.55;4.55;;;;;;;27.89;36.92;101725.22;5078167;28;20046;-78
2023/06/16 10:47:56;;;;;;;5.65;4.88;;;;;;;28.01;35.71;101722.84;5076054;28;20048;-75
2023/06/16 10:50:42;;;;;;;7.00;4.68;;;;;;;27.75;39.09;101729.66;5072725;28;20080;-77
2023/06/16 10:53:11;;;;;;;6.97;4.75;;;;;;;28.29;35.87;101723.00;5070437;28;20148;-75
2023/06/16 10:55:39;;;;;;;4.90;4.40;;;;;;;28.61;35.47;101716.19;5057339;28;20037;-74
2023/06/16 10:58:15;;;;;;;6.85;4.70;;;;;;;27.73;39.32;101718.03;5053791;28;20035;-72
2023/06/16 11:00:55;;;;;;;8.10;5.32;;;;;;;28.02;38.68;101725.41;5074662;28;20455;-76
2023/06/16 11:03:21;;;;;;;8.50;5.03;;;;;;;27.84;39.19;101720.28;5072833;28;20169;-76
2023/06/16 11:05:48;;;;;;;6.03;5.07;;;;;;;27.97;38.60;101716.06;5069120;28;20036;-79
2023/06/16 11:08:15;;;;;;;8.73;5.05;;;;;;;27.73;38.68;101723.50;5075816;28;20033;-76
2023/06/16 11:11:07;;;;;;;9.38;5.05;;;;;;;27.40;37.94;101713.91;5056543;28;20033;-76
2023/06/16 11:13:35;;;;;;;5.43;4.82;;;;;;;27.45;38.78;101722.41;5071788;28;20036;-81
2023/06/16 11:16:02;;;;;;;6.65;5.13;;;;;;;26.77;39.08;101714.06;5073975;28;20420;-77
2023/06/16 11:18:31;;;;;;;10.40;4.90;;;;;;;26.89;37.08;101719.97;5075989;28;20090;-75
2023/06/16 11:20:58;;;;;;;7.75;5.63;;;;;;;27.68;39.30;101706.75;5069864;28;20045;-73
2023/06/16 11:23:23;;;;;;;8.02;5.20;;;;;;;27.91;37.20;101708.56;5054235;28;20174;-74